Latest Weather Observations for Moss Vale

IDN60801

Issued at 8:35 am EDT Friday 24 October 2014 (issued every 30 minutes, with the page automatically refreshed every 10 minutes)

About weather observations | Map of weather stations | Latest weather observations for NSW | Other Formats
Station Details ID: 068239 Name: MOSS VALE AWS Lat: -34.53 Lon: 150.42 Height: 678.4 m
Data from the previous 72 hours. | See also: Recent months at Moss Vale
Date/Time
EDT
Temp
°C
App
Temp
°C
Dew
Point
Rel
Hum
%
Delta-T
°C
Wind Press
QNH
hPa
Press
MSL
hPa
Rain
since 9 am
mm
Dir
 
Spd
km/h
Gust
km/h
Spd
kts
Gust
kts
24/08:30am 16.2 14.1 11.2 72 2.8 NW 13 24 7 13 1021.7 1020.6 0.4
24/08:00am 15.7 14.5 11.7 77 2.2 NNE 9 13 5 7 1021.3 1020.2 0.4
24/07:30am 15.0 12.3 10.2 73 2.6 NNW 15 20 8 11 1021.4 1020.3 0.4
24/07:00am 14.9 12.8 9.9 72 2.7 ENE 11 15 6 8 1020.6 1019.5 0.4
24/06:30am 15.6 11.8 9.7 68 3.2 N 20 28 11 15 1020.6 1019.5 0.4
24/06:00am 13.4 8.5 11.3 87 1.1 ENE 28 32 15 17 1019.8 1018.6 0.4
24/05:57am 13.4 8.5 11.3 87 1.2 ENE 28 30 15 16 1019.8 1018.6 0.4
24/05:30am 13.5 12.5 11.0 85 1.4 SSE 7 15 4 8 1021.8 1020.7 0.2
24/05:00am 13.9 10.7 11.2 84 1.5 SE 19 24 10 13 1021.3 1020.2 0.2
24/04:30am 13.3 11.5 10.8 85 1.4 ENE 11 13 6 7 1020.9 1019.8 0.2
24/04:00am 13.9 14.3 11.1 83 1.5 CALM 0 0 0 0 1021.5 1020.4 0.0
24/03:30am 13.9 12.6 11.1 83 1.5 SE 9 13 5 7 1021.7 1020.6 0.0
24/03:00am 14.4 13.5 10.6 78 2.1 SW 6 11 3 6 1021.6 1020.5 0.0
24/02:30am 14.7 10.3 10.5 76 2.3 NW 24 32 13 17 1021.5 1020.4 0.0
24/02:00am 14.0 10.9 10.2 78 2.0 N 17 20 9 11 1021.1 1019.9 0.0
24/01:30am 15.2 12.0 9.8 70 2.9 NE 17 26 9 14 1020.3 1019.2 0.0
24/01:07am 14.8 11.7 12.1 84 1.5 N 20 24 11 13 1020.8 1019.7 0.0
24/01:00am 14.2 11.2 12.6 90 0.9 N 20 24 11 13 1020.8 1019.7 0.0
24/12:43am 14.4 12.8 12.8 90 0.9 ENE 13 22 7 12 1022.1 1021.0 0.0
24/12:38am 14.5 13.3 12.9 90 0.9 E 11 13 6 7 1023.0 1021.9 0.0
24/12:30am 14.6 13.8 13.0 90 0.9 ESE 9 13 5 7 1023.3 1022.2 0.0
24/12:00am 14.8 13.8 13.5 92 0.7 SE 11 17 6 9 1023.1 1022.0 0.0
 
Date/Time
EDT
Temp
°C
App
Temp
°C
Dew
Point
Rel
Hum
%
Delta-T
°C
Wind Press
QNH
hPa
Press
MSL
hPa
Rain
since 9 am
mm
Dir
 
Spd
km/h
Gust
km/h
Spd
kts
Gust
kts
23/11:51pm 14.8 14.2 13.5 92 0.7 SSE 9 15 5 8 1023.3 1022.2 0.0
23/11:30pm 14.5 13.7 12.9 90 0.9 ESE 9 13 5 7 1023.0 1021.9 0.0
23/11:00pm 14.9 12.3 13.1 89 1.0 SSE 19 22 10 12 1022.4 1021.4 0.0
23/10:30pm 14.5 15.3 12.4 87 1.2 CALM 0 0 0 0 1022.1 1021.0 0.0
23/10:00pm 14.3 13.9 12.3 88 1.1 ENE 6 7 3 4 1022.1 1021.0 0.0
23/09:30pm 14.8 14.1 11.9 83 1.6 SE 7 11 4 6 1022.0 1020.9 0.0
23/09:00pm 15.9 15.4 12.5 80 1.9 SSE 7 11 4 6 1022.0 1020.9 0.0
23/08:30pm 15.7 15.1 12.3 80 1.9 SW 7 9 4 5 1021.6 1020.5 0.0
23/08:00pm 17.1 16.2 12.6 75 2.6 E 9 13 5 7 1021.1 1019.9 0.0
23/07:30pm 18.1 16.8 12.5 70 3.2 NNE 11 17 6 9 1021.2 1020.1 0.0
23/07:00pm 18.5 17.3 12.7 69 3.3 ENE 11 15 6 8 1020.7 1019.6 0.0
23/06:30pm 19.7 18.3 12.2 62 4.3 SE 11 17 6 9 1020.4 1019.3 0.0
23/06:00pm 20.7 18.9 13.4 63 4.3 ESE 15 20 8 11 1019.9 1018.8 0.0
23/05:30pm 20.5 17.4 13.5 64 4.1 SE 22 28 12 15 1019.5 1018.3 0.0
23/05:00pm 20.9 17.1 12.3 58 5.0 SSE 24 32 13 17 1019.2 1018.1 0.0
23/04:30pm 21.7 17.2 9.9 47 6.6 SE 24 32 13 17 1018.9 1017.8 0.0
23/04:00pm 22.1 18.8 11.5 51 6.1 SSE 20 28 11 15 1018.9 1017.8 0.0
23/03:30pm 23.5 21.1 12.5 50 6.5 SSE 17 24 9 13 1018.8 1017.7 0.0
23/03:00pm 23.5 22.3 12.8 51 6.3 ESE 11 13 6 7 1018.7 1017.6 0.0
23/02:30pm 23.6 20.0 10.6 44 7.4 ESE 20 24 11 13 1018.8 1017.7 0.0
23/02:00pm 24.7 22.8 10.6 41 8.1 SE 11 17 6 9 1019.2 1018.1 0.0
23/01:30pm 25.1 21.9 8.6 35 9.2 S 15 20 8 11 1019.6 1018.4 0.0
23/01:00pm 24.6 22.4 10.8 42 7.9 S 13 20 7 11 1019.8 1018.6 0.0
23/12:30pm 24.6 23.0 12.9 48 7.0 SSW 13 19 7 10 1020.1 1019.0 0.0
23/12:00pm 24.1 20.9 11.4 45 7.4 SSW 19 20 10 11 1020.2 1019.1 0.0
23/11:30am 23.7 20.3 11.4 46 7.1 SW 20 26 11 14 1020.3 1019.2 0.0
23/11:00am 23.5 20.1 11.2 46 7.1 SSW 20 28 11 15 1020.5 1019.4 0.0
23/10:30am 23.0 22.0 14.6 59 5.1 WSW 13 17 7 9 1020.5 1019.4 0.0
23/10:00am 21.7 19.2 12.3 55 5.5 WSW 17 20 9 11 1020.4 1019.3 0.0
23/09:30am 20.7 18.4 11.6 56 5.2 WSW 15 22 8 12 1020.3 1019.2 0.0
23/09:00am 18.7 18.0 13.3 71 3.2 WSW 9 13 5 7 1020.5 1019.4 0.0
23/08:30am 16.3 16.0 12.8 80 2.0 W 6 9 3 5 1020.3 1019.2 0.0
23/08:00am 13.7 14.4 12.1 90 0.9 CALM 0 7 0 4 1020.4 1019.3 0.0
23/07:30am 12.6 13.1 11.5 93 0.6 CALM 0 0 0 0 1020.3 1019.2 0.0
23/07:00am 9.7 9.4 8.8 94 0.5 CALM 0 0 0 0 1020.2 1019.1 0.0
23/06:30am 9.5 8.8 8.6 94 0.5 WSW 2 6 1 3 1020.0 1018.9 0.0
23/06:00am 9.5 8.1 8.7 95 0.4 NW 6 7 3 4 1019.7 1018.5 0.0
23/05:45am 8.9 7.3 8.0 94 0.4 W 6 7 3 4 1019.6 1018.4 0.0
23/05:30am 9.1 8.3 8.2 94 0.5 N 2 7 1 4 1019.3 1018.2 0.0
23/05:18am 9.4 9.1 8.5 94 0.5 CALM 0 0 0 0 1019.0 1017.9 0.0
23/05:00am 8.9 8.1 8.0 94 0.4 NNW 2 7 1 4 1018.8 1017.7 0.0
23/04:56am 9.0 8.6 8.1 94 0.4 CALM 0 0 0 0 1018.9 1017.8 0.0
23/04:46am 9.9 9.7 9.0 94 0.5 CALM 0 0 0 0 1019.1 1018.0 0.0
23/04:30am 9.6 9.3 8.7 94 0.5 CALM 0 0 0 0 1019.1 1018.0 0.0
23/04:18am 9.5 9.2 8.6 94 0.5 CALM 0 0 0 0 1019.1 1018.0 0.0
23/04:00am 9.7 9.4 8.8 94 0.5 CALM 0 0 0 0 1019.0 1017.9 0.0
23/03:39am 10.0 9.8 8.9 93 0.6 CALM 0 0 0 0 1019.1 1018.0 0.0
23/03:30am 9.7 9.4 8.6 93 0.6 CALM 0 0 0 0 1019.2 1018.1 0.0
23/03:20am 9.9 9.6 8.8 93 0.6 CALM 0 0 0 0 1019.2 1018.1 0.0
23/03:00am 10.0 9.7 8.8 92 0.6 CALM 0 0 0 0 1019.5 1018.3 0.0
23/02:30am 10.5 10.3 9.1 91 0.7 CALM 0 0 0 0 1019.7 1018.5 0.0
23/02:00am 10.6 10.4 9.0 90 0.8 CALM 0 0 0 0 1020.0 1018.9 0.0
23/01:30am 11.0 10.9 9.3 89 0.9 CALM 0 0 0 0 1020.2 1019.1 0.0
23/01:00am 11.5 11.3 9.1 85 1.2 CALM 0 4 0 2 1020.5 1019.4 0.0
23/12:30am 12.1 10.4 9.8 86 1.2 NNE 9 9 5 5 1020.7 1019.6 0.0
23/12:00am 12.6 10.9 9.8 83 1.5 NNE 9 9 5 5 1020.9 1019.8 0.0
 
Date/Time
EDT
Temp
°C
App
Temp
°C
Dew
Point
Rel
Hum
%
Delta-T
°C
Wind Press
QNH
hPa
Press
MSL
hPa
Rain
since 9 am
mm
Dir
 
Spd
km/h
Gust
km/h
Spd
kts
Gust
kts
22/11:30pm 13.8 12.7 10.6 81 1.7 N 7 11 4 6 1021.2 1020.1 0.0
22/11:00pm 13.4 12.3 9.8 79 1.9 N 6 9 3 5 1021.4 1020.3 0.0
22/10:30pm 13.6 12.2 9.6 77 2.1 NNE 7 13 4 7 1021.5 1020.4 0.0
22/10:00pm 14.4 12.6 9.6 73 2.6 N 9 13 5 7 1021.5 1020.4 0.0
22/09:30pm 15.0 13.0 10.2 73 2.6 N 11 15 6 8 1021.4 1020.3 0.0
22/09:00pm 15.5 13.4 9.8 69 3.1 N 11 15 6 8 1021.4 1020.3 0.0
22/08:30pm 16.0 13.6 9.9 67 3.3 N 13 17 7 9 1021.2 1020.1 0.0
22/08:00pm 15.7 13.3 10.2 70 3.0 N 13 19 7 10 1021.1 1019.9 0.0
22/07:30pm 15.3 12.2 10.3 72 2.7 N 17 20 9 11 1020.9 1019.8 0.0
22/07:00pm 16.6 13.2 10.5 67 3.3 NNE 19 24 10 13 1020.9 1019.8 0.0
22/06:30pm 17.4 14.1 11.0 66 3.6 NNE 19 24 10 13 1020.7 1019.6 0.0
22/06:00pm 18.3 14.9 11.4 64 3.9 NE 20 30 11 16 1020.6 1019.5 0.0
22/05:30pm 19.2 15.5 11.5 61 4.4 NNE 22 30 12 16 1020.7 1019.6 0.0
22/05:00pm 19.5 15.4 11.3 59 4.6 NNE 24 33 13 18 1020.6 1019.5 0.0
22/04:30pm 19.7 15.3 11.7 60 4.6 NNE 26 32 14 17 1020.6 1019.5 0.0
22/04:00pm 20.2 16.7 13.4 65 4.0 NE 24 30 13 16 1021.1 1019.9 0.0
22/03:30pm 19.7 16.4 11.7 60 4.6 NE 20 28 11 15 1021.4 1020.3 0.0
22/03:00pm 19.7 16.6 11.5 59 4.7 NNE 19 26 10 14 1021.8 1020.7 0.0
22/02:30pm 19.4 16.1 9.6 53 5.4 NNE 17 24 9 13 1022.3 1021.2 0.0
22/02:00pm 20.0 17.6 9.9 52 5.6 N 13 20 7 11 1023.1 1022.0 0.0
22/01:30pm 18.8 15.3 8.7 52 5.4 N 17 22 9 12 1023.4 1022.3 0.0
22/01:00pm 18.2 15.4 11.3 64 3.9 N 17 22 9 12 1024.0 1023.0 0.0
22/12:30pm 16.7 12.1 6.5 51 5.2 N 20 26 11 14 1024.5 1023.4 0.0
22/12:00pm 16.1 11.5 6.3 52 4.9 N 20 28 11 15 1025.1 1024.1 0.0
22/11:30am 15.7 10.9 7.2 57 4.4 N 22 30 12 16 1025.4 1024.4 0.0
22/11:00am 15.1 9.9 7.4 60 3.9 N 24 33 13 18 1025.9 1024.8 0.0
22/10:30am 14.0 8.1 5.6 57 4.1 NNE 26 35 14 19 1026.1 1025.0 0.0
22/10:00am 13.2 7.5 4.9 57 4.0 N 24 32 13 17 1026.2 1025.1 0.0
22/09:30am 12.4 5.9 4.9 60 3.6 N 28 35 15 19 1026.3 1025.3 0.0
22/09:00am 12.0 6.1 5.6 65 3.1 N 26 35 14 19 1026.4 1025.4 0.0
22/08:30am 10.5 3.2 4.4 66 2.8 N 32 39 17 21 1026.3 1025.3 0.0
22/08:00am 10.1 2.6 4.7 69 2.5 NNE 33 43 18 23 1026.5 1025.5 0.0
22/07:30am 9.6 3.5 4.8 72 2.2 N 26 33 14 18 1026.6 1025.6 0.0
22/07:00am 8.9 3.1 4.5 74 2.0 N 24 35 13 19 1026.5 1025.5 0.0
22/06:30am 8.6 2.8 4.6 76 1.8 N 24 32 13 17 1026.5 1025.5 0.0
22/06:00am 8.5 2.9 5.4 81 1.4 NNE 24 33 13 18 1026.4 1025.4 0.0
22/05:30am 8.6 3.5 5.9 83 1.3 NNE 22 32 12 17 1026.5 1025.5 0.0
22/05:00am 8.9 3.9 6.5 85 1.1 NNE 22 28 12 15 1026.5 1025.5 0.0
22/04:30am 9.0 4.6 6.4 84 1.3 NNE 19 24 10 13 1026.8 1025.8 0.0
22/04:00am 9.1 4.1 6.5 84 1.2 NNE 22 28 12 15 1027.1 1026.1 0.0
22/03:53am 9.1 4.1 6.5 84 1.3 NNE 22 28 12 15 1027.1 1026.1 0.0
22/03:30am 9.1 4.7 6.5 84 1.3 NNE 19 22 10 12 1027.4 1026.3 0.0
22/03:10am 9.1 5.1 6.5 84 1.3 NNE 17 22 9 12 1027.9 1026.9 0.0
22/03:00am 9.1 5.4 6.5 84 1.2 NNE 15 19 8 10 1027.9 1026.9 0.0
22/02:30am 9.1 4.6 6.2 82 1.4 NNE 19 22 10 12 1028.2 1027.2 0.0
22/02:04am 9.2 5.2 6.5 83 1.3 NNE 17 22 9 12 1028.6 1027.6 0.0
22/02:00am 9.3 4.9 6.4 82 1.4 NNE 19 24 10 13 1028.6 1027.6 0.0
22/01:33am 9.3 4.9 6.6 83 1.3 NNE 19 28 10 15 1029.0 1028.0 0.0
22/01:30am 9.4 5.0 6.7 83 1.3 NNE 19 28 10 15 1029.1 1028.1 0.0
22/01:00am 9.3 4.9 6.6 83 1.3 NNE 19 22 10 12 1029.5 1028.5 0.0
22/12:30am 9.4 4.8 6.5 82 1.4 NNE 20 28 11 15 1030.1 1029.2 0.0
22/12:00am 9.6 5.2 6.7 82 1.4 NNE 19 22 10 12 1030.6 1029.6 0.0
 
Date/Time
EDT
Temp
°C
App
Temp
°C
Dew
Point
Rel
Hum
%
Delta-T
°C
Wind Press
QNH
hPa
Press
MSL
hPa
Rain
since 9 am
mm
Dir
 
Spd
km/h
Gust
km/h
Spd
kts
Gust
kts
21/11:30pm 9.7 4.7 6.6 81 1.5 NNE 22 28 12 15 1030.7 1029.7 0.0
21/11:00pm 9.7 5.2 6.2 79 1.7 NNE 19 26 10 14 1030.9 1029.9 0.0
21/10:30pm 9.8 5.2 5.8 76 1.9 NE 19 24 10 13 1031.1 1030.1 0.0
21/10:00pm 9.8 5.6 5.6 75 2.0 NE 17 22 9 12 1031.1 1030.1 0.0
21/09:30pm 9.9 6.1 5.9 76 1.9 NE 15 19 8 10 1031.1 1030.1 0.0
21/09:00pm 9.9 6.5 5.9 76 1.9 NE 13 17 7 9 1031.1 1030.1 0.0
21/08:30pm 9.9 6.5 5.7 75 2.0 NE 13 17 7 9 1031.0 1030.0 0.0
21/08:00pm 10.0 6.2 5.6 74 2.1 ENE 15 19 8 10 1030.7 1029.7 0.0
21/07:30pm 10.0 5.4 5.6 74 2.1 ENE 19 24 10 13 1030.5 1029.5 0.0
21/07:00pm 10.2 6.0 5.6 73 2.2 ENE 17 22 9 12 1030.1 1029.2 0.0
21/06:30pm 10.3 5.7 5.7 73 2.2 ENE 19 24 10 13 1030.1 1029.2 0.0
21/06:00pm 10.5 5.9 5.7 72 2.3 NE 19 24 10 13 1030.0 1029.0 0.0
21/05:30pm 10.6 6.0 5.8 72 2.3 NE 19 22 10 12 1030.0 1029.0 0.0
21/05:00pm 10.5 6.0 5.9 73 2.2 ENE 19 24 10 13 1030.1 1029.2 0.0
21/04:30pm 10.4 6.0 6.4 76 1.9 ENE 19 24 10 13 1030.1 1029.2 0.0
21/04:00pm 10.8 6.8 6.6 75 2.0 ENE 17 24 9 13 1030.1 1029.2 0.0
21/03:50pm 10.7 6.7 6.5 75 2.1 ENE 17 22 9 12 1030.3 1029.4 0.0
21/03:30pm 10.5 6.5 6.8 78 1.8 ENE 17 22 9 12 1030.5 1029.5 0.0
21/03:00pm 10.6 6.3 7.1 79 1.7 ENE 19 22 10 12 1030.8 1029.8 0.0
21/02:35pm 10.3 5.9 6.6 78 1.8 ENE 19 24 10 13 1031.0 1030.0 0.0
21/02:30pm 10.5 6.2 7.0 79 1.7 ENE 19 24 10 13 1031.1 1030.1 0.0
21/02:00pm 10.3 5.8 6.3 76 1.9 ENE 19 24 10 13 1031.4 1030.5 0.0
21/01:30pm 10.7 6.9 5.7 71 2.4 NE 15 19 8 10 1031.9 1031.0 0.0
21/01:00pm 11.0 6.5 6.0 71 2.4 ENE 19 24 10 13 1032.3 1031.3 0.0
21/12:30pm 10.6 6.1 6.0 73 2.2 NE 19 24 10 13 1032.5 1031.5 0.0
21/12:00pm 11.0 6.4 5.7 70 2.5 ENE 19 24 10 13 1032.6 1031.6 0.0
21/11:30am 11.1 6.5 5.4 68 2.7 ENE 19 22 10 12 1032.8 1031.9 0.0
21/11:00am 11.0 6.3 6.0 71 2.4 ENE 20 28 11 15 1032.9 1032.0 0.0
21/10:30am 10.4 6.3 6.2 75 2.0 ENE 17 22 9 12 1033.0 1032.1 0.0
21/10:00am 10.3 5.8 6.1 75 2.0 E 19 26 10 14 1033.0 1032.1 0.0
21/09:54am 10.1 5.4 5.9 75 2.0 E 20 26 11 14 1032.9 1032.0 0.0
21/09:42am 9.9 5.8 6.4 79 1.7 ENE 17 26 9 14 1033.0 1032.1 0.0
21/09:37am 10.3 6.8 7.2 81 1.5 ENE 15 19 8 10 1033.0 1032.1 0.0
21/09:30am 10.0 6.1 7.3 83 1.3 ENE 17 26 9 14 1032.9 1032.0 0.0
21/09:14am 10.1 5.6 6.8 80 1.6 ENE 20 26 11 14 1032.7 1031.8 0.0
21/09:07am 10.2 5.6 6.5 78 1.8 ENE 20 28 11 15 1032.7 1031.8 0.0
21/09:00am 10.3 5.9 6.5 77 1.8 E 19 26 10 14 1032.6 1031.6 0.0

Other Formats:

Comma delimited format used in spreadsheet applications
http://www.bom.gov.au/fwo/IDN60801/IDN60801.94746.axf

JavaScript Object Notation format (JSON) in row-major order
http://www.bom.gov.au/fwo/IDN60801/IDN60801.94746.json